sensor_id;sensor_type;location;lat;lon;timestamp;P1;durP1;ratioP1;P2;durP2;ratioP2
17997;SDS011;9124;48.144;17.098;2024-03-22T00:00:39;8.85;;;6.20;;
17997;SDS011;9124;48.144;17.098;2024-03-22T00:05:06;7.22;;;6.72;;
17997;SDS011;9124;48.144;17.098;2024-03-22T00:09:33;7.10;;;6.70;;
17997;SDS011;9124;48.144;17.098;2024-03-22T00:13:59;8.30;;;7.10;;
17997;SDS011;9124;48.144;17.098;2024-03-22T00:18:26;8.73;;;7.50;;
17997;SDS011;9124;48.144;17.098;2024-03-22T00:22:53;7.65;;;7.15;;
17997;SDS011;9124;48.144;17.098;2024-03-22T00:27:19;7.90;;;7.30;;
17997;SDS011;9124;48.144;17.098;2024-03-22T00:31:48;8.05;;;7.55;;
17997;SDS011;9124;48.144;17.098;2024-03-22T00:36:14;8.50;;;7.90;;
17997;SDS011;9124;48.144;17.098;2024-03-22T00:40:41;9.57;;;8.60;;
17997;SDS011;9124;48.144;17.098;2024-03-22T00:45:08;8.30;;;7.70;;
17997;SDS011;9124;48.144;17.098;2024-03-22T00:49:34;7.18;;;6.72;;
17997;SDS011;9124;48.144;17.098;2024-03-22T00:54:00;9.20;;;8.60;;
17997;SDS011;9124;48.144;17.098;2024-03-22T00:58:27;9.02;;;8.32;;
17997;SDS011;9124;48.144;17.098;2024-03-22T01:02:54;9.18;;;8.38;;
17997;SDS011;9124;48.144;17.098;2024-03-22T01:07:21;9.20;;;8.50;;
17997;SDS011;9124;48.144;17.098;2024-03-22T01:11:47;9.13;;;8.35;;
17997;SDS011;9124;48.144;17.098;2024-03-22T01:16:14;9.18;;;8.57;;
17997;SDS011;9124;48.144;17.098;2024-03-22T01:20:40;9.80;;;9.10;;
17997;SDS011;9124;48.144;17.098;2024-03-22T01:25:08;9.95;;;9.15;;
17997;SDS011;9124;48.144;17.098;2024-03-22T01:29:35;11.32;;;10.52;;
17997;SDS011;9124;48.144;17.098;2024-03-22T01:34:02;11.25;;;10.55;;
17997;SDS011;9124;48.144;17.098;2024-03-22T01:38:28;11.48;;;10.63;;
17997;SDS011;9124;48.144;17.098;2024-03-22T01:42:58;14.65;;;11.43;;
17997;SDS011;9124;48.144;17.098;2024-03-22T01:47:25;13.80;;;12.60;;
17997;SDS011;9124;48.144;17.098;2024-03-22T01:51:52;12.65;;;11.70;;
17997;SDS011;9124;48.144;17.098;2024-03-22T01:56:19;15.07;;;13.80;;
17997;SDS011;9124;48.144;17.098;2024-03-22T02:00:45;14.75;;;13.63;;
17997;SDS011;9124;48.144;17.098;2024-03-22T02:05:18;15.07;;;13.77;;
17997;SDS011;9124;48.144;17.098;2024-03-22T02:09:46;15.18;;;13.95;;
17997;SDS011;9124;48.144;17.098;2024-03-22T02:14:13;22.10;;;14.30;;
17997;SDS011;9124;48.144;17.098;2024-03-22T02:18:41;15.30;;;14.20;;
17997;SDS011;9124;48.144;17.098;2024-03-22T02:23:07;16.08;;;14.57;;
17997;SDS011;9124;48.144;17.098;2024-03-22T02:27:34;16.83;;;15.52;;
17997;SDS011;9124;48.144;17.098;2024-03-22T02:32:00;17.00;;;15.65;;
17997;SDS011;9124;48.144;17.098;2024-03-22T02:36:27;16.85;;;15.63;;
17997;SDS011;9124;48.144;17.098;2024-03-22T02:40:54;16.48;;;15.07;;
17997;SDS011;9124;48.144;17.098;2024-03-22T02:45:22;18.83;;;17.13;;
17997;SDS011;9124;48.144;17.098;2024-03-22T02:49:49;17.58;;;16.05;;
17997;SDS011;9124;48.144;17.098;2024-03-22T02:54:16;18.58;;;17.08;;
17997;SDS011;9124;48.144;17.098;2024-03-22T02:58:42;18.13;;;16.50;;
17997;SDS011;9124;48.144;17.098;2024-03-22T03:03:08;18.67;;;17.00;;
17997;SDS011;9124;48.144;17.098;2024-03-22T03:07:35;20.27;;;18.33;;
17997;SDS011;9124;48.144;17.098;2024-03-22T03:12:01;20.13;;;18.23;;
17997;SDS011;9124;48.144;17.098;2024-03-22T03:16:28;19.98;;;18.17;;
17997;SDS011;9124;48.144;17.098;2024-03-22T03:20:54;18.30;;;16.65;;
17997;SDS011;9124;48.144;17.098;2024-03-22T03:25:21;19.23;;;17.15;;
17997;SDS011;9124;48.144;17.098;2024-03-22T03:29:47;19.48;;;17.88;;
17997;SDS011;9124;48.144;17.098;2024-03-22T03:34:14;19.98;;;18.17;;
17997;SDS011;9124;48.144;17.098;2024-03-22T03:38:41;19.70;;;18.00;;
17997;SDS011;9124;48.144;17.098;2024-03-22T03:43:08;20.58;;;18.75;;
17997;SDS011;9124;48.144;17.098;2024-03-22T03:47:34;21.38;;;19.25;;
17997;SDS011;9124;48.144;17.098;2024-03-22T03:52:01;20.85;;;19.05;;
17997;SDS011;9124;48.144;17.098;2024-03-22T03:56:27;21.48;;;19.52;;
17997;SDS011;9124;48.144;17.098;2024-03-22T04:00:54;21.00;;;19.20;;
17997;SDS011;9124;48.144;17.098;2024-03-22T04:05:20;20.58;;;18.88;;
17997;SDS011;9124;48.144;17.098;2024-03-22T04:09:46;22.42;;;20.40;;
17997;SDS011;9124;48.144;17.098;2024-03-22T04:14:13;22.17;;;19.90;;
17997;SDS011;9124;48.144;17.098;2024-03-22T04:18:40;22.75;;;20.63;;
17997;SDS011;9124;48.144;17.098;2024-03-22T04:23:06;24.20;;;19.80;;
17997;SDS011;9124;48.144;17.098;2024-03-22T04:27:35;24.75;;;22.33;;
17997;SDS011;9124;48.144;17.098;2024-03-22T04:32:02;23.48;;;21.55;;
17997;SDS011;9124;48.144;17.098;2024-03-22T04:36:28;25.23;;;22.88;;
17997;SDS011;9124;48.144;17.098;2024-03-22T04:40:55;25.17;;;23.00;;
17997;SDS011;9124;48.144;17.098;2024-03-22T04:45:23;24.63;;;22.35;;
17997;SDS011;9124;48.144;17.098;2024-03-22T04:49:50;24.23;;;21.70;;
17997;SDS011;9124;48.144;17.098;2024-03-22T04:54:16;23.98;;;21.63;;
17997;SDS011;9124;48.144;17.098;2024-03-22T04:58:42;24.55;;;22.17;;
17997;SDS011;9124;48.144;17.098;2024-03-22T05:03:09;23.25;;;21.25;;
17997;SDS011;9124;48.144;17.098;2024-03-22T05:07:36;22.98;;;20.70;;
17997;SDS011;9124;48.144;17.098;2024-03-22T05:12:02;24.30;;;21.80;;
17997;SDS011;9124;48.144;17.098;2024-03-22T05:16:30;24.08;;;21.77;;
17997;SDS011;9124;48.144;17.098;2024-03-22T05:20:56;23.58;;;21.58;;
17997;SDS011;9124;48.144;17.098;2024-03-22T05:25:23;23.52;;;21.52;;
17997;SDS011;9124;48.144;17.098;2024-03-22T05:29:51;25.40;;;23.05;;
17997;SDS011;9124;48.144;17.098;2024-03-22T05:34:18;24.85;;;22.63;;
17997;SDS011;9124;48.144;17.098;2024-03-22T05:38:45;24.52;;;22.13;;
17997;SDS011;9124;48.144;17.098;2024-03-22T05:43:11;25.65;;;23.45;;
17997;SDS011;9124;48.144;17.098;2024-03-22T05:47:38;25.02;;;22.85;;
17997;SDS011;9124;48.144;17.098;2024-03-22T05:52:04;23.88;;;21.52;;
17997;SDS011;9124;48.144;17.098;2024-03-22T05:56:31;24.08;;;21.98;;
17997;SDS011;9124;48.144;17.098;2024-03-22T06:00:57;25.55;;;22.65;;
17997;SDS011;9124;48.144;17.098;2024-03-22T06:05:24;25.17;;;22.90;;
17997;SDS011;9124;48.144;17.098;2024-03-22T06:09:51;22.83;;;20.85;;
17997;SDS011;9124;48.144;17.098;2024-03-22T06:14:18;25.08;;;22.42;;
17997;SDS011;9124;48.144;17.098;2024-03-22T06:18:44;23.15;;;21.13;;
17997;SDS011;9124;48.144;17.098;2024-03-22T06:23:11;22.00;;;20.05;;
17997;SDS011;9124;48.144;17.098;2024-03-22T06:27:37;23.45;;;21.40;;
17997;SDS011;9124;48.144;17.098;2024-03-22T06:32:03;22.05;;;19.90;;
17997;SDS011;9124;48.144;17.098;2024-03-22T06:36:33;21.83;;;20.05;;
17997;SDS011;9124;48.144;17.098;2024-03-22T06:41:02;21.83;;;20.08;;
17997;SDS011;9124;48.144;17.098;2024-03-22T06:45:29;22.20;;;20.10;;
17997;SDS011;9124;48.144;17.098;2024-03-22T06:49:56;21.20;;;19.38;;
17997;SDS011;9124;48.144;17.098;2024-03-22T06:54:23;21.25;;;19.58;;
17997;SDS011;9124;48.144;17.098;2024-03-22T06:58:50;22.52;;;20.20;;
17997;SDS011;9124;48.144;17.098;2024-03-22T07:03:16;21.23;;;19.48;;
17997;SDS011;9124;48.144;17.098;2024-03-22T07:07:43;21.63;;;19.80;;
17997;SDS011;9124;48.144;17.098;2024-03-22T07:12:09;22.35;;;20.48;;
17997;SDS011;9124;48.144;17.098;2024-03-22T07:16:35;20.65;;;18.95;;
17997;SDS011;9124;48.144;17.098;2024-03-22T07:21:02;21.58;;;19.88;;
17997;SDS011;9124;48.144;17.098;2024-03-22T07:25:29;21.20;;;19.20;;
17997;SDS011;9124;48.144;17.098;2024-03-22T07:29:55;18.95;;;17.42;;
17997;SDS011;9124;48.144;17.098;2024-03-22T07:34:22;19.90;;;18.05;;
17997;SDS011;9124;48.144;17.098;2024-03-22T07:38:48;20.58;;;18.75;;
17997;SDS011;9124;48.144;17.098;2024-03-22T07:43:15;20.45;;;18.77;;
17997;SDS011;9124;48.144;17.098;2024-03-22T07:47:42;17.83;;;16.42;;
17997;SDS011;9124;48.144;17.098;2024-03-22T07:52:09;17.65;;;16.08;;
17997;SDS011;9124;48.144;17.098;2024-03-22T07:56:35;16.05;;;14.88;;
17997;SDS011;9124;48.144;17.098;2024-03-22T08:01:02;18.17;;;15.55;;
17997;SDS011;9124;48.144;17.098;2024-03-22T08:05:29;16.20;;;14.85;;
17997;SDS011;9124;48.144;17.098;2024-03-22T08:09:55;17.67;;;16.08;;
17997;SDS011;9124;48.144;17.098;2024-03-22T08:14:24;17.15;;;15.75;;
17997;SDS011;9124;48.144;17.098;2024-03-22T08:18:50;19.23;;;15.10;;
17997;SDS011;9124;48.144;17.098;2024-03-22T08:23:17;16.13;;;14.80;;
17997;SDS011;9124;48.144;17.098;2024-03-22T08:27:46;15.65;;;14.25;;
17997;SDS011;9124;48.144;17.098;2024-03-22T08:32:13;16.95;;;15.48;;
17997;SDS011;9124;48.144;17.098;2024-03-22T08:36:39;16.40;;;15.23;;
17997;SDS011;9124;48.144;17.098;2024-03-22T08:41:06;16.33;;;14.88;;
17997;SDS011;9124;48.144;17.098;2024-03-22T08:45:32;15.43;;;14.43;;
17997;SDS011;9124;48.144;17.098;2024-03-22T08:49:59;14.85;;;13.55;;
17997;SDS011;9124;48.144;17.098;2024-03-22T08:54:26;17.25;;;13.57;;
17997;SDS011;9124;48.144;17.098;2024-03-22T08:58:52;13.68;;;11.27;;
17997;SDS011;9124;48.144;17.098;2024-03-22T09:03:18;13.13;;;11.90;;
17997;SDS011;9124;48.144;17.098;2024-03-22T09:07:47;12.90;;;11.63;;
17997;SDS011;9124;48.144;17.098;2024-03-22T09:12:14;16.27;;;14.95;;
17997;SDS011;9124;48.144;17.098;2024-03-22T09:16:40;16.98;;;15.48;;
17997;SDS011;9124;48.144;17.098;2024-03-22T09:21:07;17.40;;;15.45;;
17997;SDS011;9124;48.144;17.098;2024-03-22T09:25:36;17.27;;;15.70;;
17997;SDS011;9124;48.144;17.098;2024-03-22T09:30:02;19.30;;;17.13;;
17997;SDS011;9124;48.144;17.098;2024-03-22T09:34:30;17.67;;;15.93;;
17997;SDS011;9124;48.144;17.098;2024-03-22T09:38:57;17.25;;;15.70;;
17997;SDS011;9124;48.144;17.098;2024-03-22T09:43:23;17.42;;;15.63;;
17997;SDS011;9124;48.144;17.098;2024-03-22T09:47:53;16.27;;;14.85;;
17997;SDS011;9124;48.144;17.098;2024-03-22T09:52:21;16.80;;;15.52;;
17997;SDS011;9124;48.144;17.098;2024-03-22T09:56:48;20.48;;;16.05;;
17997;SDS011;9124;48.144;17.098;2024-03-22T10:01:18;16.40;;;15.02;;
17997;SDS011;9124;48.144;17.098;2024-03-22T10:05:46;18.40;;;16.80;;
17997;SDS011;9124;48.144;17.098;2024-03-22T10:10:13;20.13;;;18.08;;
17997;SDS011;9124;48.144;17.098;2024-03-22T10:14:44;21.25;;;19.15;;
17997;SDS011;9124;48.144;17.098;2024-03-22T10:19:11;20.23;;;18.17;;
17997;SDS011;9124;48.144;17.098;2024-03-22T10:23:37;19.83;;;17.80;;
17997;SDS011;9124;48.144;17.098;2024-03-22T10:28:04;19.30;;;17.60;;
17997;SDS011;9124;48.144;17.098;2024-03-22T10:32:31;18.48;;;16.60;;
17997;SDS011;9124;48.144;17.098;2024-03-22T10:36:59;16.70;;;14.98;;
17997;SDS011;9124;48.144;17.098;2024-03-22T10:41:27;16.67;;;15.00;;
17997;SDS011;9124;48.144;17.098;2024-03-22T10:45:53;20.42;;;15.13;;
17997;SDS011;9124;48.144;17.098;2024-03-22T10:50:24;16.75;;;14.13;;
17997;SDS011;9124;48.144;17.098;2024-03-22T10:54:51;15.25;;;13.93;;
17997;SDS011;9124;48.144;17.098;2024-03-22T10:59:19;12.77;;;11.60;;
17997;SDS011;9124;48.144;17.098;2024-03-22T11:03:46;11.77;;;10.85;;
17997;SDS011;9124;48.144;17.098;2024-03-22T11:08:13;11.93;;;10.68;;
17997;SDS011;9124;48.144;17.098;2024-03-22T11:12:52;12.35;;;11.15;;
17997;SDS011;9124;48.144;17.098;2024-03-22T11:17:20;11.23;;;10.52;;
17997;SDS011;9124;48.144;17.098;2024-03-22T11:21:50;13.32;;;11.25;;
17997;SDS011;9124;48.144;17.098;2024-03-22T11:26:18;11.68;;;10.77;;
17997;SDS011;9124;48.144;17.098;2024-03-22T11:30:45;11.85;;;10.98;;
17997;SDS011;9124;48.144;17.098;2024-03-22T11:35:13;13.70;;;12.63;;
17997;SDS011;9124;48.144;17.098;2024-03-22T11:39:39;12.88;;;11.90;;
17997;SDS011;9124;48.144;17.098;2024-03-22T11:44:06;12.43;;;11.13;;
17997;SDS011;9124;48.144;17.098;2024-03-22T11:48:32;12.57;;;11.18;;
17997;SDS011;9124;48.144;17.098;2024-03-22T11:53:01;12.32;;;11.30;;
17997;SDS011;9124;48.144;17.098;2024-03-22T11:57:30;12.13;;;11.25;;
17997;SDS011;9124;48.144;17.098;2024-03-22T12:01:56;12.50;;;11.57;;
17997;SDS011;9124;48.144;17.098;2024-03-22T12:06:23;12.52;;;11.27;;
17997;SDS011;9124;48.144;17.098;2024-03-22T12:10:49;11.57;;;10.70;;
17997;SDS011;9124;48.144;17.098;2024-03-22T12:15:16;12.48;;;11.38;;
17997;SDS011;9124;48.144;17.098;2024-03-22T12:19:43;10.75;;;10.00;;
17997;SDS011;9124;48.144;17.098;2024-03-22T12:24:09;12.13;;;10.98;;
17997;SDS011;9124;48.144;17.098;2024-03-22T12:28:35;12.95;;;11.70;;
17997;SDS011;9124;48.144;17.098;2024-03-22T12:33:02;10.90;;;10.18;;
17997;SDS011;9124;48.144;17.098;2024-03-22T12:37:29;14.63;;;10.70;;
17997;SDS011;9124;48.144;17.098;2024-03-22T12:41:55;29.27;;;10.07;;
17997;SDS011;9124;48.144;17.098;2024-03-22T12:46:22;9.38;;;8.57;;
17997;SDS011;9124;48.144;17.098;2024-03-22T12:50:48;8.90;;;8.20;;
17997;SDS011;9124;48.144;17.098;2024-03-22T12:55:15;12.38;;;8.70;;
17997;SDS011;9124;48.144;17.098;2024-03-22T12:59:41;13.05;;;9.20;;
17997;SDS011;9124;48.144;17.098;2024-03-22T13:04:08;9.75;;;8.95;;
17997;SDS011;9124;48.144;17.098;2024-03-22T13:08:36;7.35;;;6.75;;
17997;SDS011;9124;48.144;17.098;2024-03-22T13:13:02;7.47;;;6.97;;
17997;SDS011;9124;48.144;17.098;2024-03-22T13:17:29;8.55;;;7.93;;
17997;SDS011;9124;48.144;17.098;2024-03-22T13:21:55;9.05;;;8.45;;
17997;SDS011;9124;48.144;17.098;2024-03-22T13:26:22;10.48;;;9.57;;
17997;SDS011;9124;48.144;17.098;2024-03-22T13:30:48;10.38;;;9.32;;
17997;SDS011;9124;48.144;17.098;2024-03-22T13:35:15;10.27;;;9.40;;
17997;SDS011;9124;48.144;17.098;2024-03-22T13:39:41;10.73;;;10.02;;
17997;SDS011;9124;48.144;17.098;2024-03-22T13:44:08;10.27;;;9.57;;
17997;SDS011;9124;48.144;17.098;2024-03-22T13:48:34;10.23;;;9.32;;
17997;SDS011;9124;48.144;17.098;2024-03-22T13:53:01;10.80;;;9.98;;
17997;SDS011;9124;48.144;17.098;2024-03-22T13:57:27;9.38;;;8.50;;
17997;SDS011;9124;48.144;17.098;2024-03-22T14:01:54;10.75;;;9.77;;
17997;SDS011;9124;48.144;17.098;2024-03-22T14:06:22;11.32;;;9.45;;
17997;SDS011;9124;48.144;17.098;2024-03-22T14:10:48;9.65;;;8.95;;
17997;SDS011;9124;48.144;17.098;2024-03-22T14:15:15;13.13;;;8.90;;
17997;SDS011;9124;48.144;17.098;2024-03-22T14:19:42;8.55;;;7.68;;
17997;SDS011;9124;48.144;17.098;2024-03-22T14:24:08;8.05;;;7.45;;
17997;SDS011;9124;48.144;17.098;2024-03-22T14:28:35;11.93;;;8.25;;
17997;SDS011;9124;48.144;17.098;2024-03-22T14:33:02;7.88;;;7.18;;
17997;SDS011;9124;48.144;17.098;2024-03-22T14:37:30;8.40;;;7.70;;
17997;SDS011;9124;48.144;17.098;2024-03-22T14:41:57;9.27;;;8.57;;
17997;SDS011;9124;48.144;17.098;2024-03-22T14:46:24;9.98;;;9.00;;
17997;SDS011;9124;48.144;17.098;2024-03-22T14:50:51;7.97;;;7.40;;
17997;SDS011;9124;48.144;17.098;2024-03-22T14:55:19;12.40;;;7.85;;
17997;SDS011;9124;48.144;17.098;2024-03-22T14:59:46;10.60;;;8.02;;
17997;SDS011;9124;48.144;17.098;2024-03-22T15:04:14;8.55;;;7.95;;
17997;SDS011;9124;48.144;17.098;2024-03-22T15:08:41;9.98;;;8.50;;
17997;SDS011;9124;48.144;17.098;2024-03-22T15:13:07;8.35;;;7.53;;
17997;SDS011;9124;48.144;17.098;2024-03-22T15:17:34;8.43;;;7.68;;
17997;SDS011;9124;48.144;17.098;2024-03-22T15:22:00;7.60;;;6.97;;
17997;SDS011;9124;48.144;17.098;2024-03-22T15:26:27;8.15;;;7.35;;
17997;SDS011;9124;48.144;17.098;2024-03-22T15:30:53;6.47;;;6.05;;
17997;SDS011;9124;48.144;17.098;2024-03-22T15:35:20;7.75;;;7.15;;
17997;SDS011;9124;48.144;17.098;2024-03-22T15:39:46;7.95;;;6.28;;
17997;SDS011;9124;48.144;17.098;2024-03-22T15:44:13;7.85;;;6.03;;
17997;SDS011;9124;48.144;17.098;2024-03-22T15:48:39;8.05;;;5.95;;
17997;SDS011;9124;48.144;17.098;2024-03-22T15:53:05;7.50;;;5.70;;
17997;SDS011;9124;48.144;17.098;2024-03-22T15:57:32;5.95;;;5.55;;
17997;SDS011;9124;48.144;17.098;2024-03-22T16:01:58;5.70;;;5.25;;
17997;SDS011;9124;48.144;17.098;2024-03-22T16:06:24;6.05;;;5.50;;
17997;SDS011;9124;48.144;17.098;2024-03-22T16:10:51;10.13;;;5.75;;
17997;SDS011;9124;48.144;17.098;2024-03-22T16:15:17;6.88;;;6.28;;
17997;SDS011;9124;48.144;17.098;2024-03-22T16:19:44;6.53;;;6.07;;
17997;SDS011;9124;48.144;17.098;2024-03-22T16:24:10;5.60;;;5.15;;
17997;SDS011;9124;48.144;17.098;2024-03-22T16:28:37;6.50;;;5.90;;
17997;SDS011;9124;48.144;17.098;2024-03-22T16:33:03;6.80;;;5.47;;
17997;SDS011;9124;48.144;17.098;2024-03-22T16:37:30;6.05;;;5.65;;
17997;SDS011;9124;48.144;17.098;2024-03-22T16:41:56;6.43;;;5.60;;
17997;SDS011;9124;48.144;17.098;2024-03-22T16:46:23;8.43;;;4.97;;
17997;SDS011;9124;48.144;17.098;2024-03-22T16:50:50;6.57;;;4.97;;
17997;SDS011;9124;48.144;17.098;2024-03-22T16:55:16;5.07;;;4.60;;
17997;SDS011;9124;48.144;17.098;2024-03-22T16:59:43;5.72;;;4.75;;
17997;SDS011;9124;48.144;17.098;2024-03-22T17:04:10;5.93;;;4.43;;
17997;SDS011;9124;48.144;17.098;2024-03-22T17:08:36;6.13;;;5.50;;
17997;SDS011;9124;48.144;17.098;2024-03-22T17:13:04;8.48;;;5.38;;
17997;SDS011;9124;48.144;17.098;2024-03-22T17:17:31;6.05;;;5.53;;
17997;SDS011;9124;48.144;17.098;2024-03-22T17:21:57;7.78;;;5.47;;
17997;SDS011;9124;48.144;17.098;2024-03-22T17:26:24;5.63;;;5.20;;
17997;SDS011;9124;48.144;17.098;2024-03-22T17:30:51;6.63;;;6.03;;
17997;SDS011;9124;48.144;17.098;2024-03-22T17:35:18;5.80;;;5.32;;
17997;SDS011;9124;48.144;17.098;2024-03-22T17:39:44;8.57;;;6.00;;
17997;SDS011;9124;48.144;17.098;2024-03-22T17:44:10;7.10;;;6.22;;
17997;SDS011;9124;48.144;17.098;2024-03-22T17:48:37;6.68;;;6.18;;
17997;SDS011;9124;48.144;17.098;2024-03-22T17:53:03;10.93;;;6.78;;
17997;SDS011;9124;48.144;17.098;2024-03-22T17:57:29;6.85;;;6.25;;
17997;SDS011;9124;48.144;17.098;2024-03-22T18:01:57;10.63;;;7.25;;
17997;SDS011;9124;48.144;17.098;2024-03-22T18:06:23;12.00;;;7.18;;
17997;SDS011;9124;48.144;17.098;2024-03-22T18:10:50;7.05;;;6.40;;
17997;SDS011;9124;48.144;17.098;2024-03-22T18:15:16;6.60;;;6.10;;
17997;SDS011;9124;48.144;17.098;2024-03-22T18:19:43;10.43;;;6.10;;
17997;SDS011;9124;48.144;17.098;2024-03-22T18:24:10;9.02;;;6.63;;
17997;SDS011;9124;48.144;17.098;2024-03-22T18:28:37;7.72;;;6.85;;
17997;SDS011;9124;48.144;17.098;2024-03-22T18:33:03;8.70;;;6.60;;
17997;SDS011;9124;48.144;17.098;2024-03-22T18:37:31;6.85;;;6.35;;
17997;SDS011;9124;48.144;17.098;2024-03-22T18:41:57;10.02;;;5.97;;
17997;SDS011;9124;48.144;17.098;2024-03-22T18:46:24;9.30;;;7.57;;
17997;SDS011;9124;48.144;17.098;2024-03-22T18:50:50;9.13;;;8.02;;
17997;SDS011;9124;48.144;17.098;2024-03-22T18:55:18;13.85;;;9.23;;
17997;SDS011;9124;48.144;17.098;2024-03-22T18:59:44;10.43;;;9.32;;
17997;SDS011;9124;48.144;17.098;2024-03-22T19:04:11;8.80;;;8.20;;
17997;SDS011;9124;48.144;17.098;2024-03-22T19:08:37;9.68;;;8.68;;
17997;SDS011;9124;48.144;17.098;2024-03-22T19:13:03;13.57;;;9.65;;
17997;SDS011;9124;48.144;17.098;2024-03-22T19:17:30;12.32;;;9.60;;
17997;SDS011;9124;48.144;17.098;2024-03-22T19:21:57;9.48;;;8.68;;
17997;SDS011;9124;48.144;17.098;2024-03-22T19:26:23;12.90;;;8.32;;
17997;SDS011;9124;48.144;17.098;2024-03-22T19:30:52;10.48;;;8.70;;
17997;SDS011;9124;48.144;17.098;2024-03-22T19:35:19;14.68;;;8.93;;
17997;SDS011;9124;48.144;17.098;2024-03-22T19:39:45;9.18;;;8.38;;
17997;SDS011;9124;48.144;17.098;2024-03-22T19:44:12;9.70;;;8.75;;
17997;SDS011;9124;48.144;17.098;2024-03-22T19:48:38;9.90;;;8.48;;
17997;SDS011;9124;48.144;17.098;2024-03-22T19:53:05;12.27;;;8.90;;
17997;SDS011;9124;48.144;17.098;2024-03-22T19:57:32;9.93;;;9.05;;
17997;SDS011;9124;48.144;17.098;2024-03-22T20:01:58;11.07;;;8.90;;
17997;SDS011;9124;48.144;17.098;2024-03-22T20:06:25;15.43;;;8.23;;
17997;SDS011;9124;48.144;17.098;2024-03-22T20:10:52;8.27;;;7.53;;
17997;SDS011;9124;48.144;17.098;2024-03-22T20:15:18;10.27;;;9.20;;
17997;SDS011;9124;48.144;17.098;2024-03-22T20:19:48;10.32;;;8.18;;
17997;SDS011;9124;48.144;17.098;2024-03-22T20:24:15;10.63;;;8.52;;
17997;SDS011;9124;48.144;17.098;2024-03-22T20:28:42;12.02;;;8.55;;
17997;SDS011;9124;48.144;17.098;2024-03-22T20:33:08;10.65;;;9.25;;
17997;SDS011;9124;48.144;17.098;2024-03-22T20:37:35;11.18;;;8.63;;
